Terminal Aerodrome Forecast
Issued by NWS

Home | Current Version | Previous Version | Text Only | Print | Product List | Glossary On
Versions: 1 2 3 4 5 6 7 8 9 10 11 12 13 14 15 16 17 18 19 20 21 22 23 24 25
000
FTUS41 KRLX 061457 AAA
TAFCKB
TAF AMD
KCKB 061457Z 0615/0712 23004KT P6SM VCSH OVC020
     FM061600 25004KT 3SM SHRA VCTS OVC020CB
     FM062200 22003KT 6SM BR VCTS BKN035CB
     FM070200 VRB03KT 6SM BR BKN025
     FM071000 00000KT 2SM BR SCT035=

USA.gov is the U.S. government's official web portal to all federal, state and local government web resources and services.